createdAt,value
2022-07-25T00:00:54.433Z,83.12
2022-07-25T00:03:52.232Z,84.81
2022-07-25T00:06:49.997Z,84.31
2022-07-25T00:09:46.927Z,85.16
2022-07-25T00:12:43.914Z,85.00
2022-07-25T00:15:40.967Z,83.43
2022-07-25T00:18:38.168Z,84.63
2022-07-25T00:21:34.841Z,82.62
2022-07-25T00:24:32.269Z,84.50
2022-07-25T00:27:30.182Z,85.29
2022-07-25T00:30:27.956Z,85.08
2022-07-25T00:33:26.435Z,85.24
2022-07-25T00:36:24.084Z,84.76
2022-07-25T00:39:21.270Z,84.14
2022-07-25T00:42:18.727Z,83.60
2022-07-25T00:45:15.957Z,83.78
2022-07-25T00:48:12.951Z,83.42
2022-07-25T00:51:10.073Z,82.51
2022-07-25T00:54:07.079Z,84.18
2022-07-25T00:57:04.922Z,84.38
2022-07-25T01:00:04.937Z,83.79
2022-07-25T01:03:02.617Z,83.71
2022-07-25T01:06:00.001Z,84.08
2022-07-25T01:08:56.947Z,84.08
2022-07-25T01:11:53.704Z,84.59
2022-07-25T01:14:50.789Z,83.91
2022-07-25T01:17:47.999Z,83.24
2022-07-25T01:20:45.188Z,85.61
2022-07-25T01:23:42.685Z,86.68
2022-07-25T01:26:40.071Z,86.76
2022-07-25T01:29:36.695Z,88.65
2022-07-25T01:32:34.638Z,89.01
2022-07-25T01:35:31.587Z,90.13
2022-07-25T01:38:29.138Z,90.43
2022-07-25T01:41:25.955Z,90.01
2022-07-25T01:44:23.098Z,90.21
2022-07-25T01:47:20.076Z,89.86
2022-07-25T01:50:17.131Z,90.64
2022-07-25T01:53:15.153Z,92.02
2022-07-25T01:56:12.060Z,92.10
2022-07-25T01:59:09.898Z,92.70
2022-07-25T02:02:07.578Z,93.93
2022-07-25T02:05:05.277Z,94.40
2022-07-25T02:08:03.094Z,94.36
2022-07-25T02:11:00.372Z,92.32
2022-07-25T02:13:58.166Z,91.82
2022-07-25T02:16:56.434Z,90.96
2022-07-25T02:19:54.251Z,89.67
2022-07-25T02:22:51.878Z,89.22
2022-07-25T02:25:49.188Z,88.06
2022-07-25T02:28:45.929Z,87.97
2022-07-25T02:31:43.181Z,85.91
2022-07-25T02:34:39.938Z,85.54
2022-07-25T02:37:37.331Z,84.28
2022-07-25T02:40:35.063Z,83.93
2022-07-25T02:43:31.997Z,84.10
2022-07-25T02:46:29.074Z,83.78
2022-07-25T02:49:26.287Z,84.03
2022-07-25T02:52:22.883Z,83.86
2022-07-25T02:55:20.378Z,83.42
2022-07-25T02:58:17.856Z,83.01
2022-07-25T03:01:15.261Z,82.53
2022-07-25T03:04:12.944Z,82.02
2022-07-25T03:07:13.042Z,81.51
2022-07-25T03:10:11.297Z,81.02
2022-07-25T03:13:08.631Z,81.00
2022-07-25T03:16:06.575Z,80.44
2022-07-25T03:19:04.071Z,79.84
2022-07-25T03:22:01.070Z,80.16
2022-07-25T03:24:58.258Z,80.10
2022-07-25T03:27:54.929Z,80.61
2022-07-25T03:30:52.463Z,80.70
2022-07-25T03:33:50.339Z,80.30
2022-07-25T03:36:46.670Z,81.31
2022-07-25T03:39:44.370Z,81.03
2022-07-25T03:42:42.256Z,80.70
2022-07-25T03:45:39.095Z,81.21
2022-07-25T03:48:36.279Z,81.32
2022-07-25T03:51:34.319Z,80.45
2022-07-25T03:54:31.761Z,80.33
2022-07-25T03:57:29.421Z,80.24
2022-07-25T04:00:27.044Z,79.73
2022-07-25T04:03:24.200Z,79.22
2022-07-25T04:06:21.230Z,79.72
2022-07-25T04:09:17.963Z,79.37
2022-07-25T04:12:14.885Z,79.29
2022-07-25T04:15:13.107Z,79.17
2022-07-25T04:18:10.125Z,80.19
2022-07-25T04:21:12.340Z,80.02
2022-07-25T04:24:09.297Z,79.60
2022-07-25T04:27:06.761Z,78.80
2022-07-25T04:30:04.476Z,78.90
2022-07-25T04:33:02.077Z,78.91
2022-07-25T04:35:59.368Z,79.72
2022-07-25T04:38:57.122Z,79.14
2022-07-25T04:41:54.001Z,78.96
2022-07-25T04:44:50.996Z,79.21
2022-07-25T04:47:48.001Z,79.73
2022-07-25T04:50:45.272Z,80.09
2022-07-25T04:53:42.041Z,79.35
2022-07-25T04:56:38.860Z,78.81
2022-07-25T04:59:35.768Z,78.51
2022-07-25T05:02:33.176Z,78.43
2022-07-25T05:05:32.461Z,78.95
2022-07-25T05:08:30.062Z,78.41
2022-07-25T05:11:27.082Z,78.21
2022-07-25T05:14:24.351Z,78.05
2022-07-25T05:17:21.286Z,78.07
2022-07-25T05:20:18.025Z,78.13
2022-07-25T05:23:15.149Z,77.79
2022-07-25T05:26:12.132Z,78.46
2022-07-25T05:29:10.387Z,78.32
2022-07-25T05:32:07.068Z,78.18
2022-07-25T05:35:05.049Z,77.37
2022-07-25T05:38:02.538Z,77.23
2022-07-25T05:40:59.982Z,75.78
2022-07-25T05:43:57.057Z,74.95
2022-07-25T05:46:54.183Z,75.01
2022-07-25T05:49:51.090Z,75.02
2022-07-25T05:52:48.195Z,75.25
2022-07-25T05:55:45.044Z,75.83
2022-07-25T05:58:42.461Z,76.10
2022-07-25T06:01:40.406Z,75.37
2022-07-25T06:04:37.956Z,73.40
2022-07-25T06:07:35.051Z,74.13
2022-07-25T06:10:32.735Z,74.31
2022-07-25T06:13:30.306Z,75.26
2022-07-25T06:16:33.387Z,74.63
2022-07-25T06:19:31.058Z,74.43
2022-07-25T06:22:27.929Z,73.84
2022-07-25T06:25:25.093Z,73.70
2022-07-25T06:28:22.314Z,74.45
2022-07-25T06:31:19.121Z,74.11
2022-07-25T06:34:16.537Z,73.42
2022-07-25T06:37:14.042Z,73.01
2022-07-25T06:40:11.355Z,73.13
2022-07-25T06:43:08.321Z,73.09
2022-07-25T06:46:05.202Z,73.52
2022-07-25T06:49:02.041Z,71.86
2022-07-25T06:51:59.465Z,72.21
2022-07-25T06:54:56.761Z,72.25
2022-07-25T06:57:54.632Z,71.50
2022-07-25T07:00:52.290Z,70.96
2022-07-25T07:03:48.924Z,70.39
2022-07-25T07:06:46.518Z,71.33
2022-07-25T07:09:44.672Z,70.11
2022-07-25T07:12:42.416Z,69.06
2022-07-25T07:15:40.921Z,70.24
2022-07-25T07:18:38.269Z,67.42
2022-07-25T07:21:35.287Z,65.80
2022-07-25T07:24:32.445Z,65.49
2022-07-25T07:27:29.055Z,67.72
2022-07-25T07:30:44.208Z,65.31
2022-07-25T07:33:43.048Z,63.73
2022-07-25T07:36:39.978Z,63.32
2022-07-25T07:39:37.397Z,62.69
2022-07-25T07:42:46.005Z,61.72
2022-07-25T07:45:43.293Z,61.31
2022-07-25T07:48:40.111Z,61.39
2022-07-25T07:51:37.193Z,61.06
2022-07-25T07:54:57.675Z,60.30
2022-07-25T07:57:56.411Z,60.22
2022-07-25T08:00:54.371Z,60.97
2022-07-25T08:03:51.404Z,59.74
2022-07-25T08:06:48.395Z,58.39
2022-07-25T08:09:45.085Z,57.29
2022-07-25T08:12:42.447Z,56.60
2022-07-25T08:15:39.275Z,55.55
2022-07-25T08:18:36.165Z,56.60
2022-07-25T08:21:33.463Z,57.19
2022-07-25T08:24:30.439Z,58.39
2022-07-25T08:27:27.027Z,56.97
2022-07-25T08:30:24.851Z,57.07
2022-07-25T08:33:22.276Z,58.31
2022-07-25T08:36:19.108Z,57.73
2022-07-25T08:39:16.580Z,57.33
2022-07-25T08:42:14.100Z,57.17
2022-07-25T08:45:16.568Z,57.32
2022-07-25T08:48:14.751Z,56.19
2022-07-25T08:51:12.404Z,56.96
2022-07-25T08:54:09.623Z,55.25
2022-07-25T08:57:07.215Z,55.81
2022-07-25T09:00:06.369Z,55.34
2022-07-25T09:03:03.773Z,55.65
2022-07-25T09:06:01.044Z,54.74
2022-07-25T09:08:59.773Z,54.73
2022-07-25T09:11:57.147Z,54.71
2022-07-25T09:14:54.265Z,55.49
2022-07-25T09:17:52.181Z,56.07
2022-07-25T09:20:50.324Z,56.16
2022-07-25T09:23:47.841Z,55.61
2022-07-25T09:26:49.975Z,56.49
2022-07-25T09:29:47.237Z,56.94
2022-07-25T09:32:45.342Z,56.91
2022-07-25T09:35:42.459Z,56.45
2022-07-25T09:38:39.408Z,56.04
2022-07-25T09:41:37.167Z,55.15
2022-07-25T09:44:34.142Z,53.91
2022-07-25T09:47:32.596Z,54.07
2022-07-25T09:50:30.945Z,53.47
2022-07-25T09:53:28.522Z,53.03
2022-07-25T09:56:25.174Z,53.88
2022-07-25T09:59:22.033Z,54.67
2022-07-25T10:02:42.146Z,53.89
2022-07-25T10:05:48.670Z,54.32
2022-07-25T10:08:46.924Z,55.16
2022-07-25T10:12:06.847Z,54.48
2022-07-25T10:15:12.234Z,56.25
2022-07-25T10:18:09.402Z,55.69
2022-07-25T10:21:25.109Z,55.16
2022-07-25T10:24:33.416Z,56.79
2022-07-25T10:27:30.505Z,56.56
2022-07-25T10:30:29.225Z,56.83
2022-07-25T10:33:26.487Z,57.57
2022-07-25T10:36:24.670Z,56.93
2022-07-25T10:39:22.372Z,56.31
2022-07-25T10:42:22.773Z,56.36
2022-07-25T10:45:20.836Z,56.97
2022-07-25T10:48:23.230Z,55.13
2022-07-25T10:51:26.714Z,55.35
2022-07-25T10:54:24.760Z,54.68
2022-07-25T10:57:22.521Z,55.40
2022-07-25T11:00:19.760Z,54.46
2022-07-25T11:03:18.610Z,54.78
2022-07-25T11:06:16.573Z,55.65
2022-07-25T11:09:19.248Z,56.72
2022-07-25T11:12:19.603Z,56.78
2022-07-25T11:15:17.419Z,55.05
2022-07-25T11:18:14.685Z,55.74
2022-07-25T11:21:12.767Z,54.71
2022-07-25T11:24:10.398Z,54.66
2022-07-25T11:27:12.590Z,56.32
2022-07-25T11:30:11.591Z,56.52
2022-07-25T11:33:08.374Z,56.66
2022-07-25T11:36:05.884Z,56.96
2022-07-25T11:39:03.854Z,59.13
2022-07-25T11:42:04.109Z,58.72
2022-07-25T11:45:01.612Z,60.87
2022-07-25T11:48:12.132Z,62.33
2022-07-25T11:51:13.761Z,61.33
2022-07-25T11:54:16.690Z,60.18
2022-07-25T11:57:23.777Z,62.21
2022-07-25T12:00:22.169Z,63.32
2022-07-25T12:03:22.329Z,63.24
2022-07-25T12:06:19.634Z,63.73
2022-07-25T12:09:19.301Z,61.64
2022-07-25T12:12:16.578Z,63.13
2022-07-25T12:15:16.437Z,62.47
2022-07-25T12:18:13.823Z,62.77
2022-07-25T12:21:11.407Z,62.86
2022-07-25T12:24:08.529Z,63.76
2022-07-25T12:27:05.417Z,63.34
2022-07-25T12:30:02.730Z,62.00
2022-07-25T12:32:59.629Z,62.12
2022-07-25T12:35:56.435Z,61.09
2022-07-25T12:38:53.593Z,59.33
2022-07-25T12:41:50.529Z,57.01
2022-07-25T12:44:47.525Z,57.21
2022-07-25T12:47:45.265Z,57.39
2022-07-25T12:50:43.213Z,56.64
2022-07-25T12:53:42.627Z,57.45
2022-07-25T12:56:39.305Z,57.14
2022-07-25T12:59:36.944Z,57.22
2022-07-25T13:02:34.390Z,57.33
2022-07-25T13:05:31.165Z,56.55
2022-07-25T13:08:28.739Z,56.56
2022-07-25T13:11:25.845Z,55.95
2022-07-25T13:14:23.431Z,56.51
2022-07-25T13:17:24.930Z,57.41
2022-07-25T13:20:24.413Z,58.58
2022-07-25T13:23:21.865Z,59.13
2022-07-25T13:26:19.638Z,61.15
2022-07-25T13:29:16.234Z,61.66
2022-07-25T13:32:16.627Z,62.91
2022-07-25T13:35:17.701Z,64.25
2022-07-25T13:38:17.647Z,64.66
2022-07-25T13:41:14.425Z,63.45
2022-07-25T13:44:13.746Z,62.83
2022-07-25T13:47:10.686Z,62.89
2022-07-25T13:50:08.281Z,62.69
2022-07-25T13:53:06.202Z,62.71
2022-07-25T13:56:03.706Z,59.73
2022-07-25T13:59:01.566Z,61.04
2022-07-25T14:01:58.628Z,61.86
2022-07-25T14:04:55.534Z,60.46
2022-07-25T14:07:52.520Z,62.11
2022-07-25T14:10:49.485Z,61.03
2022-07-25T14:13:46.775Z,61.48
2022-07-25T14:16:43.883Z,60.94
2022-07-25T14:19:41.665Z,60.23
2022-07-25T14:22:39.652Z,61.16
2022-07-25T14:25:36.637Z,60.57
2022-07-25T14:28:33.525Z,61.04
2022-07-25T14:31:32.021Z,61.21
2022-07-25T14:34:29.412Z,63.89
2022-07-25T14:37:26.494Z,66.31
2022-07-25T14:40:23.485Z,67.70
2022-07-25T14:43:20.475Z,68.20
2022-07-25T14:46:17.675Z,69.30
2022-07-25T14:49:15.173Z,68.76
2022-07-25T14:52:12.996Z,70.61
2022-07-25T14:55:10.369Z,71.21
2022-07-25T14:58:07.869Z,71.74
2022-07-25T15:01:05.097Z,72.96
2022-07-25T15:04:02.758Z,72.69
2022-07-25T15:07:00.868Z,72.03
2022-07-25T15:09:57.482Z,71.78
2022-07-25T15:13:20.476Z,71.24
2022-07-25T15:16:13.043Z,69.34
2022-07-25T15:19:18.162Z,69.28
2022-07-25T15:22:15.517Z,70.41
2022-07-25T15:25:59.921Z,71.62
2022-07-25T15:28:29.527Z,72.37
2022-07-25T15:31:26.704Z,72.71
2022-07-25T15:34:23.773Z,72.28
2022-07-25T15:37:21.985Z,72.09
2022-07-25T15:40:19.549Z,72.63
2022-07-25T15:43:16.415Z,72.93
2022-07-25T15:46:14.071Z,72.86
2022-07-25T15:49:12.104Z,71.69
2022-07-25T15:52:09.465Z,72.25
2022-07-25T15:55:06.910Z,72.27
2022-07-25T15:58:05.017Z,72.16
2022-07-25T16:01:02.595Z,72.35
2022-07-25T16:04:01.092Z,72.59
2022-07-25T16:06:58.957Z,72.17
2022-07-25T16:09:56.686Z,71.42
2022-07-25T16:12:53.487Z,71.85
2022-07-25T16:15:51.100Z,71.22
2022-07-25T16:18:49.101Z,70.84
2022-07-25T16:21:46.875Z,70.78
2022-07-25T16:24:44.652Z,70.18
2022-07-25T16:27:41.888Z,69.45
2022-07-25T16:30:39.727Z,68.11
2022-07-25T16:33:36.627Z,67.45
2022-07-25T16:36:33.760Z,67.32
2022-07-25T16:39:30.620Z,66.19
2022-07-25T16:42:27.566Z,66.14
2022-07-25T16:45:27.884Z,65.64
2022-07-25T16:48:25.167Z,63.79
2022-07-25T16:51:23.015Z,64.61
2022-07-25T16:54:20.790Z,64.44
2022-07-25T16:57:17.886Z,62.99
2022-07-25T17:00:20.997Z,62.29
2022-07-25T17:03:17.610Z,63.07
2022-07-25T17:06:16.446Z,63.55
2022-07-25T17:09:13.675Z,63.18
2022-07-25T17:12:10.658Z,64.24
2022-07-25T17:15:08.464Z,62.74
2022-07-25T17:18:06.061Z,63.57
2022-07-25T17:21:04.321Z,63.71
2022-07-25T17:24:01.788Z,62.76
2022-07-25T17:26:58.419Z,64.08
2022-07-25T17:29:56.085Z,62.31
2022-07-25T17:32:54.005Z,63.05
2022-07-25T17:35:52.321Z,63.46
2022-07-25T17:38:49.802Z,63.82
2022-07-25T17:41:46.860Z,63.44
2022-07-25T17:44:43.708Z,63.10
2022-07-25T17:47:41.029Z,62.75
2022-07-25T17:50:37.567Z,62.75
2022-07-25T17:53:34.483Z,63.23
2022-07-25T17:56:31.713Z,62.44
2022-07-25T17:59:29.121Z,62.05
2022-07-25T18:02:26.860Z,61.58
2022-07-25T18:05:24.171Z,60.45
2022-07-25T18:08:21.973Z,60.11
2022-07-25T18:11:18.996Z,61.41
2022-07-25T18:14:15.594Z,60.40
2022-07-25T18:17:12.470Z,60.82
2022-07-25T18:20:11.658Z,59.80
2022-07-25T18:23:09.123Z,60.09
2022-07-25T18:26:07.113Z,59.74
2022-07-25T18:29:06.263Z,59.91
2022-07-25T18:32:03.943Z,60.37
2022-07-25T18:35:00.817Z,59.88
2022-07-25T18:37:57.780Z,60.23
2022-07-25T18:41:18.883Z,60.85
2022-07-25T18:44:12.016Z,61.24
2022-07-25T18:47:09.902Z,60.62
2022-07-25T18:50:08.370Z,60.97
2022-07-25T18:53:05.717Z,61.20
2022-07-25T18:56:03.051Z,61.20
2022-07-25T18:58:59.821Z,60.59
2022-07-25T19:01:57.508Z,60.90
2022-07-25T19:04:54.982Z,61.48
2022-07-25T19:07:52.001Z,62.49
2022-07-25T19:10:49.583Z,62.16
2022-07-25T19:13:50.127Z,62.48
2022-07-25T19:16:48.256Z,63.22
2022-07-25T19:19:45.537Z,63.28
2022-07-25T19:22:43.132Z,63.59
2022-07-25T19:25:41.093Z,63.56
2022-07-25T19:28:38.139Z,64.11
2022-07-25T19:31:35.543Z,63.33
2022-07-25T19:34:32.505Z,62.99
2022-07-25T19:37:29.987Z,63.28
2022-07-25T19:40:26.915Z,63.11
2022-07-25T19:43:23.843Z,63.25
2022-07-25T19:46:20.673Z,63.18
2022-07-25T19:49:18.308Z,63.81
2022-07-25T19:52:15.822Z,63.13
2022-07-25T19:55:12.978Z,63.11
2022-07-25T19:58:10.406Z,63.16
2022-07-25T20:01:08.011Z,62.62
2022-07-25T20:04:05.774Z,63.31
2022-07-25T20:07:03.094Z,64.04
2022-07-25T20:10:00.967Z,64.70
2022-07-25T20:13:01.384Z,63.55
2022-07-25T20:15:59.162Z,63.58
2022-07-25T20:18:55.793Z,63.74
2022-07-25T20:21:52.929Z,64.32
2022-07-25T20:24:50.169Z,64.27
2022-07-25T20:27:49.904Z,63.34
2022-07-25T20:30:46.921Z,63.02
2022-07-25T20:33:44.326Z,63.83
2022-07-25T20:36:42.520Z,64.61
2022-07-25T20:39:40.056Z,63.85
2022-07-25T20:42:38.206Z,64.03
2022-07-25T20:45:36.822Z,63.51
2022-07-25T20:48:34.796Z,62.76
2022-07-25T20:51:32.318Z,62.55
2022-07-25T20:54:29.565Z,62.70
2022-07-25T20:57:27.099Z,62.75
2022-07-25T21:00:25.856Z,63.64
2022-07-25T21:03:23.055Z,64.10
2022-07-25T21:06:19.864Z,65.46
2022-07-25T21:09:23.862Z,65.17
2022-07-25T21:12:21.120Z,64.51
2022-07-25T21:15:18.141Z,64.63
2022-07-25T21:18:14.955Z,65.66
2022-07-25T21:21:12.452Z,65.39
2022-07-25T21:24:12.078Z,65.80
2022-07-25T21:27:09.305Z,66.48
2022-07-25T21:30:10.592Z,66.69
2022-07-25T21:33:14.265Z,66.50
2022-07-25T21:36:11.954Z,66.88
2022-07-25T21:39:09.589Z,66.82
2022-07-25T21:42:09.914Z,66.54
2022-07-25T21:45:07.675Z,66.42
2022-07-25T21:48:05.624Z,67.46
2022-07-25T21:51:07.754Z,68.02
2022-07-25T21:54:05.268Z,68.43
2022-07-25T21:57:01.993Z,68.39
2022-07-25T21:59:58.933Z,68.76
2022-07-25T22:02:56.454Z,69.14
2022-07-25T22:05:54.068Z,69.33
2022-07-25T22:08:51.099Z,70.08
2022-07-25T22:11:48.273Z,69.67
2022-07-25T22:14:44.898Z,69.21
2022-07-25T22:17:48.197Z,69.10
2022-07-25T22:20:47.110Z,68.93
2022-07-25T22:23:44.340Z,69.20
2022-07-25T22:26:46.851Z,69.66
2022-07-25T22:29:44.292Z,69.75
2022-07-25T22:32:42.227Z,69.80
2022-07-25T22:35:39.069Z,70.17
2022-07-25T22:38:36.147Z,70.03
2022-07-25T22:41:33.021Z,69.43
2022-07-25T22:44:30.226Z,68.79
2022-07-25T22:47:27.828Z,68.58
2022-07-25T22:50:25.407Z,68.37
2022-07-25T22:53:23.506Z,68.82
2022-07-25T22:56:21.835Z,69.55
2022-07-25T22:59:19.376Z,69.59
2022-07-25T23:02:17.364Z,70.24
2022-07-25T23:05:16.169Z,71.36
2022-07-25T23:08:12.967Z,72.10
2022-07-25T23:11:14.113Z,72.33
2022-07-25T23:14:11.446Z,72.32
2022-07-25T23:17:17.797Z,72.75
2022-07-25T23:20:15.344Z,73.24
2022-07-25T23:23:12.150Z,72.89
2022-07-25T23:26:09.089Z,74.05
2022-07-25T23:29:06.554Z,75.40
2022-07-25T23:32:04.303Z,75.94
2022-07-25T23:35:01.851Z,76.03
2022-07-25T23:37:58.734Z,76.22
2022-07-25T23:40:57.114Z,76.26
2022-07-25T23:43:57.474Z,75.75
2022-07-25T23:46:57.456Z,76.42
2022-07-25T23:49:55.025Z,77.27
2022-07-25T23:52:51.880Z,78.62
2022-07-25T23:55:49.317Z,79.95
2022-07-25T23:58:47.537Z,80.92
